sensor_id;sensor_type;location;lat;lon;timestamp;pressure;altitude;pressure_sealevel;temperature
13219;BMP180;6674;49.152;11.918;2023-07-29T00:01:17;95641.72;;;18.78
13219;BMP180;6674;49.152;11.918;2023-07-29T00:03:43;95639.38;;;18.76
13219;BMP180;6674;49.152;11.918;2023-07-29T00:06:10;95631.03;;;18.74
13219;BMP180;6674;49.152;11.918;2023-07-29T00:08:37;95639.66;;;18.75
13219;BMP180;6674;49.152;11.918;2023-07-29T00:11:04;95638.88;;;18.74
13219;BMP180;6674;49.152;11.918;2023-07-29T00:13:32;95636.03;;;18.71
13219;BMP180;6674;49.152;11.918;2023-07-29T00:15:58;95643.38;;;18.69
13219;BMP180;6674;49.152;11.918;2023-07-29T00:18:25;95647.31;;;18.66
13219;BMP180;6674;49.152;11.918;2023-07-29T00:20:53;95649.94;;;18.61
13219;BMP180;6674;49.152;11.918;2023-07-29T00:23:19;95637.16;;;18.60
13219;BMP180;6674;49.152;11.918;2023-07-29T00:25:46;95637.94;;;18.60
13219;BMP180;6674;49.152;11.918;2023-07-29T00:28:13;95641.09;;;18.58
13219;BMP180;6674;49.152;11.918;2023-07-29T00:30:41;95642.41;;;18.55
13219;BMP180;6674;49.152;11.918;2023-07-29T00:33:08;95640.63;;;18.51
13219;BMP180;6674;49.152;11.918;2023-07-29T00:35:35;95639.56;;;18.52
13219;BMP180;6674;49.152;11.918;2023-07-29T00:38:01;95638.84;;;18.46
13219;BMP180;6674;49.152;11.918;2023-07-29T00:40:29;95638.31;;;18.44
13219;BMP180;6674;49.152;11.918;2023-07-29T00:42:56;95629.41;;;18.50
13219;BMP180;6674;49.152;11.918;2023-07-29T00:45:25;95635.16;;;18.47
13219;BMP180;6674;49.152;11.918;2023-07-29T00:47:55;95625.78;;;18.46
13219;BMP180;6674;49.152;11.918;2023-07-29T00:50:22;95638.03;;;18.46
13219;BMP180;6674;49.152;11.918;2023-07-29T00:52:50;95636.22;;;18.41
13219;BMP180;6674;49.152;11.918;2023-07-29T00:55:17;95632.34;;;18.39
13219;BMP180;6674;49.152;11.918;2023-07-29T00:57:43;95639.91;;;18.40
13219;BMP180;6674;49.152;11.918;2023-07-29T01:00:14;95640.41;;;18.42
13219;BMP180;6674;49.152;11.918;2023-07-29T01:02:41;95628.13;;;18.43
13219;BMP180;6674;49.152;11.918;2023-07-29T01:05:12;95622.63;;;18.44
13219;BMP180;6674;49.152;11.918;2023-07-29T01:07:44;95619.56;;;18.37
13219;BMP180;6674;49.152;11.918;2023-07-29T01:10:21;95620.31;;;18.38
13219;BMP180;6674;49.152;11.918;2023-07-29T01:12:58;95605.81;;;18.27
13219;BMP180;6674;49.152;11.918;2023-07-29T01:15:33;95617.28;;;18.26
13219;BMP180;6674;49.152;11.918;2023-07-29T01:18:04;95617.03;;;18.22
13219;BMP180;6674;49.152;11.918;2023-07-29T01:20:34;95620.97;;;18.10
13219;BMP180;6674;49.152;11.918;2023-07-29T01:23:02;95627.31;;;18.04
13219;BMP180;6674;49.152;11.918;2023-07-29T01:25:31;95628.34;;;18.03
13219;BMP180;6674;49.152;11.918;2023-07-29T01:27:58;95628.84;;;18.05
13219;BMP180;6674;49.152;11.918;2023-07-29T01:30:30;95615.59;;;17.97
13219;BMP180;6674;49.152;11.918;2023-07-29T01:33:01;95618.16;;;18.02
13219;BMP180;6674;49.152;11.918;2023-07-29T01:35:33;95607.47;;;18.03
13219;BMP180;6674;49.152;11.918;2023-07-29T01:38:05;95606.94;;;18.06
13219;BMP180;6674;49.152;11.918;2023-07-29T01:40:34;95597.31;;;17.97
13219;BMP180;6674;49.152;11.918;2023-07-29T01:43:02;95606.97;;;17.96
13219;BMP180;6674;49.152;11.918;2023-07-29T01:45:28;95614.78;;;18.01
13219;BMP180;6674;49.152;11.918;2023-07-29T01:47:57;95611.09;;;18.02
13219;BMP180;6674;49.152;11.918;2023-07-29T01:50:23;95602.00;;;18.00
13219;BMP180;6674;49.152;11.918;2023-07-29T01:52:51;95614.00;;;17.96
13219;BMP180;6674;49.152;11.918;2023-07-29T01:55:18;95618.19;;;17.97
13219;BMP180;6674;49.152;11.918;2023-07-29T01:57:46;95616.13;;;17.89
13219;BMP180;6674;49.152;11.918;2023-07-29T02:00:13;95618.78;;;17.84
13219;BMP180;6674;49.152;11.918;2023-07-29T02:02:39;95618.78;;;17.79
13219;BMP180;6674;49.152;11.918;2023-07-29T02:05:07;95626.63;;;17.79
13219;BMP180;6674;49.152;11.918;2023-07-29T02:07:33;95624.25;;;17.82
13219;BMP180;6674;49.152;11.918;2023-07-29T02:10:00;95619.53;;;17.84
13219;BMP180;6674;49.152;11.918;2023-07-29T02:12:26;95616.44;;;17.82
13219;BMP180;6674;49.152;11.918;2023-07-29T02:14:56;95613.78;;;17.87
13219;BMP180;6674;49.152;11.918;2023-07-29T02:17:22;95615.63;;;17.92
13219;BMP180;6674;49.152;11.918;2023-07-29T02:19:49;95616.88;;;17.99
13219;BMP180;6674;49.152;11.918;2023-07-29T02:22:16;95615.06;;;17.95
13219;BMP180;6674;49.152;11.918;2023-07-29T02:24:43;95614.81;;;17.96
13219;BMP180;6674;49.152;11.918;2023-07-29T02:27:10;95611.19;;;17.87
13219;BMP180;6674;49.152;11.918;2023-07-29T02:29:37;95621.88;;;17.91
13219;BMP180;6674;49.152;11.918;2023-07-29T02:32:05;95622.66;;;17.91
13219;BMP180;6674;49.152;11.918;2023-07-29T02:34:32;95628.41;;;17.88
13219;BMP180;6674;49.152;11.918;2023-07-29T02:36:58;95624.75;;;17.89
13219;BMP180;6674;49.152;11.918;2023-07-29T02:39:26;95637.53;;;17.91
13219;BMP180;6674;49.152;11.918;2023-07-29T02:41:54;95633.31;;;18.00
13219;BMP180;6674;49.152;11.918;2023-07-29T02:44:21;95628.38;;;17.98
13219;BMP180;6674;49.152;11.918;2023-07-29T02:46:48;95631.47;;;18.05
13219;BMP180;6674;49.152;11.918;2023-07-29T02:49:16;95625.50;;;18.00
13219;BMP180;6674;49.152;11.918;2023-07-29T02:51:42;95608.50;;;18.02
13219;BMP180;6674;49.152;11.918;2023-07-29T02:54:09;95614.22;;;18.09
13219;BMP180;6674;49.152;11.918;2023-07-29T02:56:35;95608.75;;;18.11
13219;BMP180;6674;49.152;11.918;2023-07-29T02:59:02;95605.88;;;18.12
13219;BMP180;6674;49.152;11.918;2023-07-29T03:01:29;95607.44;;;18.08
13219;BMP180;6674;49.152;11.918;2023-07-29T03:03:55;95612.66;;;18.13
13219;BMP180;6674;49.152;11.918;2023-07-29T03:06:24;95602.97;;;18.09
13219;BMP180;6674;49.152;11.918;2023-07-29T03:08:50;95599.56;;;18.18
13219;BMP180;6674;49.152;11.918;2023-07-29T03:11:17;95595.41;;;18.17
13219;BMP180;6674;49.152;11.918;2023-07-29T03:13:44;95602.72;;;18.15
13219;BMP180;6674;49.152;11.918;2023-07-29T03:16:12;95591.50;;;18.15
13219;BMP180;6674;49.152;11.918;2023-07-29T03:18:40;95599.59;;;18.13
13219;BMP180;6674;49.152;11.918;2023-07-29T03:21:08;95606.13;;;18.11
13219;BMP180;6674;49.152;11.918;2023-07-29T03:23:37;95590.75;;;18.09
13219;BMP180;6674;49.152;11.918;2023-07-29T03:26:04;95588.66;;;18.11
13219;BMP180;6674;49.152;11.918;2023-07-29T03:28:37;95598.03;;;18.07
13219;BMP180;6674;49.152;11.918;2023-07-29T03:31:04;95597.03;;;18.03
13219;BMP180;6674;49.152;11.918;2023-07-29T03:33:31;95599.66;;;17.98
13219;BMP180;6674;49.152;11.918;2023-07-29T03:35:57;95585.56;;;17.99
13219;BMP180;6674;49.152;11.918;2023-07-29T03:38:24;95585.81;;;18.03
13219;BMP180;6674;49.152;11.918;2023-07-29T03:40:52;95578.47;;;18.05
13219;BMP180;6674;49.152;11.918;2023-07-29T03:43:19;95581.91;;;18.00
13219;BMP180;6674;49.152;11.918;2023-07-29T03:45:46;95588.19;;;17.99
13219;BMP180;6674;49.152;11.918;2023-07-29T03:48:13;95591.09;;;17.93
13219;BMP180;6674;49.152;11.918;2023-07-29T03:50:39;95591.38;;;17.86
13219;BMP180;6674;49.152;11.918;2023-07-29T03:53:06;95592.97;;;17.77
13219;BMP180;6674;49.152;11.918;2023-07-29T03:55:34;95596.91;;;17.75
13219;BMP180;6674;49.152;11.918;2023-07-29T03:58:02;95595.59;;;17.77
13219;BMP180;6674;49.152;11.918;2023-07-29T04:00:29;95590.38;;;17.72
13219;BMP180;6674;49.152;11.918;2023-07-29T04:02:55;95580.47;;;17.70
13219;BMP180;6674;49.152;11.918;2023-07-29T04:05:22;95585.69;;;17.70
13219;BMP180;6674;49.152;11.918;2023-07-29T04:07:49;95571.16;;;17.64
13219;BMP180;6674;49.152;11.918;2023-07-29T04:10:22;95580.53;;;17.60
13219;BMP180;6674;49.152;11.918;2023-07-29T04:12:49;95589.69;;;17.52
13219;BMP180;6674;49.152;11.918;2023-07-29T04:15:18;95586.28;;;17.52
13219;BMP180;6674;49.152;11.918;2023-07-29T04:17:44;95606.66;;;17.50
13219;BMP180;6674;49.152;11.918;2023-07-29T04:20:11;95594.66;;;17.44
13219;BMP180;6674;49.152;11.918;2023-07-29T04:22:38;95591.53;;;17.42
13219;BMP180;6674;49.152;11.918;2023-07-29T04:25:06;95591.56;;;17.37
13219;BMP180;6674;49.152;11.918;2023-07-29T04:27:32;95583.22;;;17.35
13219;BMP180;6674;49.152;11.918;2023-07-29T04:29:59;95584.50;;;17.37
13219;BMP180;6674;49.152;11.918;2023-07-29T04:32:27;95576.44;;;17.34
13219;BMP180;6674;49.152;11.918;2023-07-29T04:34:54;95573.81;;;17.39
13219;BMP180;6674;49.152;11.918;2023-07-29T04:37:20;95573.59;;;17.30
13219;BMP180;6674;49.152;11.918;2023-07-29T04:39:47;95584.00;;;17.35
13219;BMP180;6674;49.152;11.918;2023-07-29T04:42:14;95582.47;;;17.29
13219;BMP180;6674;49.152;11.918;2023-07-29T04:44:41;95574.09;;;17.32
13219;BMP180;6674;49.152;11.918;2023-07-29T04:47:09;95581.13;;;17.37
13219;BMP180;6674;49.152;11.918;2023-07-29T04:49:37;95577.00;;;17.31
13219;BMP180;6674;49.152;11.918;2023-07-29T04:52:04;95573.56;;;17.35
13219;BMP180;6674;49.152;11.918;2023-07-29T04:54:31;95580.59;;;17.45
13219;BMP180;6674;49.152;11.918;2023-07-29T04:56:57;95577.97;;;17.45
13219;BMP180;6674;49.152;11.918;2023-07-29T04:59:24;95581.84;;;17.57
13219;BMP180;6674;49.152;11.918;2023-07-29T05:01:52;95571.66;;;17.66
13219;BMP180;6674;49.152;11.918;2023-07-29T05:04:18;95567.19;;;17.71
13219;BMP180;6674;49.152;11.918;2023-07-29T05:06:46;95577.31;;;17.77
13219;BMP180;6674;49.152;11.918;2023-07-29T05:09:14;95585.38;;;17.86
13219;BMP180;6674;49.152;11.918;2023-07-29T05:11:41;95575.16;;;17.89
13219;BMP180;6674;49.152;11.918;2023-07-29T05:14:09;95568.34;;;17.98
13219;BMP180;6674;49.152;11.918;2023-07-29T05:16:35;95569.09;;;18.04
13219;BMP180;6674;49.152;11.918;2023-07-29T05:19:02;95567.50;;;18.13
13219;BMP180;6674;49.152;11.918;2023-07-29T05:21:29;95559.91;;;18.16
13219;BMP180;6674;49.152;11.918;2023-07-29T05:23:58;95571.84;;;18.27
13219;BMP180;6674;49.152;11.918;2023-07-29T05:26:25;95577.59;;;18.29
13219;BMP180;6674;49.152;11.918;2023-07-29T05:28:51;95576.44;;;18.45
13219;BMP180;6674;49.152;11.918;2023-07-29T05:31:18;95581.03;;;18.53
13219;BMP180;6674;49.152;11.918;2023-07-29T05:33:46;95569.50;;;18.58
13219;BMP180;6674;49.152;11.918;2023-07-29T05:36:12;95574.97;;;18.62
13219;BMP180;6674;49.152;11.918;2023-07-29T05:38:39;95581.75;;;18.63
13219;BMP180;6674;49.152;11.918;2023-07-29T05:41:07;95574.66;;;18.68
13219;BMP180;6674;49.152;11.918;2023-07-29T05:43:34;95581.38;;;18.79
13219;BMP180;6674;49.152;11.918;2023-07-29T05:46:00;95568.25;;;18.84
13219;BMP180;6674;49.152;11.918;2023-07-29T05:48:27;95548.81;;;18.95
13219;BMP180;6674;49.152;11.918;2023-07-29T05:50:54;95564.97;;;19.02
13219;BMP180;6674;49.152;11.918;2023-07-29T05:53:20;95573.81;;;19.06
13219;BMP180;6674;49.152;11.918;2023-07-29T05:55:50;95568.25;;;19.12
13219;BMP180;6674;49.152;11.918;2023-07-29T05:58:18;95566.94;;;19.15
13219;BMP180;6674;49.152;11.918;2023-07-29T06:00:44;95571.91;;;19.16
13219;BMP180;6674;49.152;11.918;2023-07-29T06:03:11;95570.53;;;19.19
13219;BMP180;6674;49.152;11.918;2023-07-29T06:05:38;95574.44;;;19.21
13219;BMP180;6674;49.152;11.918;2023-07-29T06:08:05;95575.16;;;19.27
13219;BMP180;6674;49.152;11.918;2023-07-29T06:10:34;95564.44;;;19.28
13219;BMP180;6674;49.152;11.918;2023-07-29T06:13:00;95561.53;;;19.30
13219;BMP180;6674;49.152;11.918;2023-07-29T06:15:28;95558.94;;;19.30
13219;BMP180;6674;49.152;11.918;2023-07-29T06:17:56;95555.00;;;19.32
13219;BMP180;6674;49.152;11.918;2023-07-29T06:20:23;95563.13;;;19.31
13219;BMP180;6674;49.152;11.918;2023-07-29T06:22:50;95576.69;;;19.33
13219;BMP180;6674;49.152;11.918;2023-07-29T06:25:17;95567.94;;;19.19
13219;BMP180;6674;49.152;11.918;2023-07-29T06:27:43;95575.16;;;19.27
13219;BMP180;6674;49.152;11.918;2023-07-29T06:30:10;95574.56;;;19.35
13219;BMP180;6674;49.152;11.918;2023-07-29T06:32:38;95581.63;;;19.34
13219;BMP180;6674;49.152;11.918;2023-07-29T06:35:06;95575.28;;;19.40
13219;BMP180;6674;49.152;11.918;2023-07-29T06:37:33;95574.50;;;19.40
13219;BMP180;6674;49.152;11.918;2023-07-29T06:39:59;95575.75;;;19.47
13219;BMP180;6674;49.152;11.918;2023-07-29T06:42:27;95579.06;;;19.52
13219;BMP180;6674;49.152;11.918;2023-07-29T06:44:54;95570.66;;;19.55
13219;BMP180;6674;49.152;11.918;2023-07-29T06:47:20;95576.34;;;19.62
13219;BMP180;6674;49.152;11.918;2023-07-29T06:49:49;95587.00;;;19.66
13219;BMP180;6674;49.152;11.918;2023-07-29T06:52:15;95575.22;;;19.68
13219;BMP180;6674;49.152;11.918;2023-07-29T06:54:43;95586.13;;;19.75
13219;BMP180;6674;49.152;11.918;2023-07-29T06:57:09;95589.50;;;19.76
13219;BMP180;6674;49.152;11.918;2023-07-29T06:59:36;95584.53;;;19.74
13219;BMP180;6674;49.152;11.918;2023-07-29T07:02:03;95589.78;;;19.74
13219;BMP180;6674;49.152;11.918;2023-07-29T07:04:41;95591.53;;;19.60
13219;BMP180;6674;49.152;11.918;2023-07-29T07:07:09;95591.59;;;19.55
13219;BMP180;6674;49.152;11.918;2023-07-29T07:09:38;95593.78;;;19.48
13219;BMP180;6674;49.152;11.918;2023-07-29T07:12:06;95593.59;;;19.40
13219;BMP180;6674;49.152;11.918;2023-07-29T07:14:33;95595.81;;;19.51
13219;BMP180;6674;49.152;11.918;2023-07-29T07:17:00;95588.59;;;19.44
13219;BMP180;6674;49.152;11.918;2023-07-29T07:19:29;95570.66;;;19.55
13219;BMP180;6674;49.152;11.918;2023-07-29T07:21:55;95564.34;;;19.61
13219;BMP180;6674;49.152;11.918;2023-07-29T07:24:24;95560.00;;;19.70
13219;BMP180;6674;49.152;11.918;2023-07-29T07:26:51;95567.81;;;19.75
13219;BMP180;6674;49.152;11.918;2023-07-29T07:29:18;95574.59;;;19.76
13219;BMP180;6674;49.152;11.918;2023-07-29T07:31:50;95568.47;;;19.86
13219;BMP180;6674;49.152;11.918;2023-07-29T07:34:17;95582.78;;;19.93
13219;BMP180;6674;49.152;11.918;2023-07-29T07:36:44;95594.81;;;19.94
13219;BMP180;6674;49.152;11.918;2023-07-29T07:39:11;95603.22;;;19.91
13219;BMP180;6674;49.152;11.918;2023-07-29T07:41:40;95604.06;;;19.87
13219;BMP180;6674;49.152;11.918;2023-07-29T07:44:06;95583.72;;;19.79
13219;BMP180;6674;49.152;11.918;2023-07-29T07:46:33;95596.50;;;19.85
13219;BMP180;6674;49.152;11.918;2023-07-29T07:49:00;95583.63;;;19.65
13219;BMP180;6674;49.152;11.918;2023-07-29T07:51:26;95593.03;;;19.66
13219;BMP180;6674;49.152;11.918;2023-07-29T07:53:53;95580.25;;;19.65
13219;BMP180;6674;49.152;11.918;2023-07-29T07:56:20;95587.34;;;19.59
13219;BMP180;6674;49.152;11.918;2023-07-29T07:58:48;95603.06;;;19.59
13219;BMP180;6674;49.152;11.918;2023-07-29T08:01:14;95600.94;;;19.38
13219;BMP180;6674;49.152;11.918;2023-07-29T08:03:41;95618.56;;;19.28
13219;BMP180;6674;49.152;11.918;2023-07-29T08:06:08;95603.69;;;19.00
13219;BMP180;6674;49.152;11.918;2023-07-29T08:08:34;95594.97;;;18.76
13219;BMP180;6674;49.152;11.918;2023-07-29T08:11:02;95607.41;;;18.56
13219;BMP180;6674;49.152;11.918;2023-07-29T08:13:29;95613.38;;;18.61
13219;BMP180;6674;49.152;11.918;2023-07-29T08:15:58;95599.06;;;18.54
13219;BMP180;6674;49.152;11.918;2023-07-29T08:18:24;95604.34;;;18.44
13219;BMP180;6674;49.152;11.918;2023-07-29T08:20:52;95589.56;;;18.35
13219;BMP180;6674;49.152;11.918;2023-07-29T08:23:21;95600.09;;;18.15
13219;BMP180;6674;49.152;11.918;2023-07-29T08:25:52;95603.25;;;18.07
13219;BMP180;6674;49.152;11.918;2023-07-29T08:28:20;95594.50;;;17.88
13219;BMP180;6674;49.152;11.918;2023-07-29T08:30:46;95593.41;;;17.99
13219;BMP180;6674;49.152;11.918;2023-07-29T08:33:16;95584.28;;;17.92
13219;BMP180;6674;49.152;11.918;2023-07-29T08:35:42;95565.28;;;17.86
13219;BMP180;6674;49.152;11.918;2023-07-29T08:38:10;95568.88;;;17.95
13219;BMP180;6674;49.152;11.918;2023-07-29T08:40:42;95572.78;;;17.98
13219;BMP180;6674;49.152;11.918;2023-07-29T08:43:12;95579.34;;;17.90
13219;BMP180;6674;49.152;11.918;2023-07-29T08:45:41;95574.66;;;17.87
13219;BMP180;6674;49.152;11.918;2023-07-29T08:48:10;95576.03;;;17.80
13219;BMP180;6674;49.152;11.918;2023-07-29T08:50:38;95584.53;;;17.95
13219;BMP180;6674;49.152;11.918;2023-07-29T08:53:07;95579.78;;;18.02
13219;BMP180;6674;49.152;11.918;2023-07-29T08:55:34;95575.59;;;18.11
13219;BMP180;6674;49.152;11.918;2023-07-29T08:58:02;95576.06;;;18.18
13219;BMP180;6674;49.152;11.918;2023-07-29T09:00:29;95578.88;;;18.26
13219;BMP180;6674;49.152;11.918;2023-07-29T09:02:57;95557.44;;;18.34
13219;BMP180;6674;49.152;11.918;2023-07-29T09:05:29;95565.72;;;18.46
13219;BMP180;6674;49.152;11.918;2023-07-29T09:07:58;95563.84;;;18.52
13219;BMP180;6674;49.152;11.918;2023-07-29T09:10:26;95570.53;;;18.62
13219;BMP180;6674;49.152;11.918;2023-07-29T09:12:53;95564.22;;;18.68
13219;BMP180;6674;49.152;11.918;2023-07-29T09:15:29;95562.84;;;18.76
13219;BMP180;6674;49.152;11.918;2023-07-29T09:17:57;95551.81;;;18.84
13219;BMP180;6674;49.152;11.918;2023-07-29T09:20:25;95552.56;;;18.84
13219;BMP180;6674;49.152;11.918;2023-07-29T09:22:53;95554.09;;;18.90
13219;BMP180;6674;49.152;11.918;2023-07-29T09:25:26;95546.56;;;18.84
13219;BMP180;6674;49.152;11.918;2023-07-29T09:27:58;95540.06;;;18.81
13219;BMP180;6674;49.152;11.918;2023-07-29T09:30:25;95547.78;;;18.91
13219;BMP180;6674;49.152;11.918;2023-07-29T09:32:55;95552.97;;;18.96
13219;BMP180;6674;49.152;11.918;2023-07-29T09:35:21;95567.59;;;18.97
13219;BMP180;6674;49.152;11.918;2023-07-29T09:37:51;95550.91;;;18.93
13219;BMP180;6674;49.152;11.918;2023-07-29T09:40:18;95557.41;;;19.01
13219;BMP180;6674;49.152;11.918;2023-07-29T09:42:51;95566.53;;;19.03
13219;BMP180;6674;49.152;11.918;2023-07-29T09:45:22;95567.09;;;19.00
13219;BMP180;6674;49.152;11.918;2023-07-29T09:47:50;95570.22;;;18.97
13219;BMP180;6674;49.152;11.918;2023-07-29T09:50:17;95578.53;;;19.04
13219;BMP180;6674;49.152;11.918;2023-07-29T09:52:44;95577.00;;;19.03
13219;BMP180;6674;49.152;11.918;2023-07-29T09:55:12;95579.03;;;19.06
13219;BMP180;6674;49.152;11.918;2023-07-29T09:57:39;95587.97;;;19.05
13219;BMP180;6674;49.152;11.918;2023-07-29T10:00:10;95591.56;;;19.09
13219;BMP180;6674;49.152;11.918;2023-07-29T10:02:38;95615.38;;;19.07
13219;BMP180;6674;49.152;11.918;2023-07-29T10:05:06;95608.03;;;19.09
13219;BMP180;6674;49.152;11.918;2023-07-29T10:07:33;95612.53;;;18.99
13219;BMP180;6674;49.152;11.918;2023-07-29T10:10:02;95610.72;;;19.00
13219;BMP180;6674;49.152;11.918;2023-07-29T10:12:31;95609.41;;;19.02
13219;BMP180;6674;49.152;11.918;2023-07-29T10:14:59;95606.31;;;18.95
13219;BMP180;6674;49.152;11.918;2023-07-29T10:17:28;95597.94;;;18.98
13219;BMP180;6674;49.152;11.918;2023-07-29T10:19:57;95594.22;;;19.04
13219;BMP180;6674;49.152;11.918;2023-07-29T10:22:28;95577.00;;;19.03
13219;BMP180;6674;49.152;11.918;2023-07-29T10:24:59;95585.56;;;19.08
13219;BMP180;6674;49.152;11.918;2023-07-29T10:27:31;95576.38;;;19.11
13219;BMP180;6674;49.152;11.918;2023-07-29T10:30:02;95581.16;;;19.27
13219;BMP180;6674;49.152;11.918;2023-07-29T10:32:31;95570.16;;;19.30
13219;BMP180;6674;49.152;11.918;2023-07-29T10:34:58;95565.47;;;19.27
13219;BMP180;6674;49.152;11.918;2023-07-29T10:37:25;95570.84;;;19.41
13219;BMP180;6674;49.152;11.918;2023-07-29T10:39:53;95570.25;;;19.48
13219;BMP180;6674;49.152;11.918;2023-07-29T10:42:21;95575.28;;;19.63
13219;BMP180;6674;49.152;11.918;2023-07-29T10:44:49;95580.25;;;19.83
13219;BMP180;6674;49.152;11.918;2023-07-29T10:47:19;95586.50;;;19.87
13219;BMP180;6674;49.152;11.918;2023-07-29T10:49:50;95588.88;;;19.84
13219;BMP180;6674;49.152;11.918;2023-07-29T10:52:29;95580.44;;;19.91
13219;BMP180;6674;49.152;11.918;2023-07-29T10:54:56;95579.75;;;20.04
13219;BMP180;6674;49.152;11.918;2023-07-29T10:57:31;95571.53;;;20.11
13219;BMP180;6674;49.152;11.918;2023-07-29T10:59:58;95580.63;;;20.18
13219;BMP180;6674;49.152;11.918;2023-07-29T11:02:29;95581.66;;;20.35
13219;BMP180;6674;49.152;11.918;2023-07-29T11:04:58;95598.31;;;20.44
13219;BMP180;6674;49.152;11.918;2023-07-29T11:07:27;95596.22;;;20.78
13219;BMP180;6674;49.152;11.918;2023-07-29T11:10:00;95592.25;;;20.80
13219;BMP180;6674;49.152;11.918;2023-07-29T11:12:35;95593.19;;;21.03
13219;BMP180;6674;49.152;11.918;2023-07-29T11:15:04;95582.69;;;21.03
13219;BMP180;6674;49.152;11.918;2023-07-29T11:17:33;95574.09;;;21.16
13219;BMP180;6674;49.152;11.918;2023-07-29T11:20:02;95577.75;;;21.15
13219;BMP180;6674;49.152;11.918;2023-07-29T11:22:29;95578.03;;;21.13
13219;BMP180;6674;49.152;11.918;2023-07-29T11:24:56;95576.53;;;21.25
13219;BMP180;6674;49.152;11.918;2023-07-29T11:27:23;95556.66;;;21.51
13219;BMP180;6674;49.152;11.918;2023-07-29T11:29:50;95567.22;;;21.73
13219;BMP180;6674;49.152;11.918;2023-07-29T11:32:16;95566.72;;;21.84
13219;BMP180;6674;49.152;11.918;2023-07-29T11:34:43;95568.97;;;21.77
13219;BMP180;6674;49.152;11.918;2023-07-29T11:37:11;95572.66;;;21.76
13219;BMP180;6674;49.152;11.918;2023-07-29T11:39:39;95560.25;;;22.04
13219;BMP180;6674;49.152;11.918;2023-07-29T11:42:06;95554.72;;;22.05
13219;BMP180;6674;49.152;11.918;2023-07-29T11:44:33;95554.13;;;22.08
13219;BMP180;6674;49.152;11.918;2023-07-29T11:47:00;95558.78;;;22.24
13219;BMP180;6674;49.152;11.918;2023-07-29T11:49:27;95555.75;;;22.17
13219;BMP180;6674;49.152;11.918;2023-07-29T11:51:53;95542.09;;;22.29
13219;BMP180;6674;49.152;11.918;2023-07-29T11:54:21;95546.00;;;22.53
13219;BMP180;6674;49.152;11.918;2023-07-29T11:56:50;95546.13;;;22.70
13219;BMP180;6674;49.152;11.918;2023-07-29T11:59:17;95552.44;;;22.91
13219;BMP180;6674;49.152;11.918;2023-07-29T12:01:45;95529.47;;;22.96
13219;BMP180;6674;49.152;11.918;2023-07-29T12:04:12;95528.63;;;23.17
13219;BMP180;6674;49.152;11.918;2023-07-29T12:06:40;95531.44;;;23.21
13219;BMP180;6674;49.152;11.918;2023-07-29T12:09:07;95523.06;;;23.19
13219;BMP180;6674;49.152;11.918;2023-07-29T12:11:37;95516.66;;;23.41
13219;BMP180;6674;49.152;11.918;2023-07-29T12:14:07;95499.41;;;23.27
13219;BMP180;6674;49.152;11.918;2023-07-29T12:16:40;95515.03;;;23.24
13219;BMP180;6674;49.152;11.918;2023-07-29T12:19:07;95516.03;;;23.44
13219;BMP180;6674;49.152;11.918;2023-07-29T12:21:35;95515.16;;;23.57
13219;BMP180;6674;49.152;11.918;2023-07-29T12:24:02;95521.03;;;23.54
13219;BMP180;6674;49.152;11.918;2023-07-29T12:26:29;95506.72;;;23.39
13219;BMP180;6674;49.152;11.918;2023-07-29T12:28:57;95521.75;;;23.38
13219;BMP180;6674;49.152;11.918;2023-07-29T12:31:31;95518.00;;;23.39
13219;BMP180;6674;49.152;11.918;2023-07-29T12:33:58;95503.75;;;23.23
13219;BMP180;6674;49.152;11.918;2023-07-29T12:36:27;95505.69;;;23.09
13219;BMP180;6674;49.152;11.918;2023-07-29T12:38:59;95501.50;;;23.08
13219;BMP180;6674;49.152;11.918;2023-07-29T12:41:25;95498.28;;;22.90
13219;BMP180;6674;49.152;11.918;2023-07-29T12:43:52;95491.94;;;22.60
13219;BMP180;6674;49.152;11.918;2023-07-29T12:46:20;95506.22;;;22.46
13219;BMP180;6674;49.152;11.918;2023-07-29T12:48:47;95523.91;;;22.32
13219;BMP180;6674;49.152;11.918;2023-07-29T12:51:13;95521.38;;;22.27
13219;BMP180;6674;49.152;11.918;2023-07-29T12:53:40;95504.28;;;22.16
13219;BMP180;6674;49.152;11.918;2023-07-29T12:56:07;95502.72;;;22.15
13219;BMP180;6674;49.152;11.918;2023-07-29T12:58:33;95522.41;;;22.05
13219;BMP180;6674;49.152;11.918;2023-07-29T13:01:01;95521.47;;;22.01
13219;BMP180;6674;49.152;11.918;2023-07-29T13:03:30;95524.91;;;22.09
13219;BMP180;6674;49.152;11.918;2023-07-29T13:05:56;95528.81;;;22.12
13219;BMP180;6674;49.152;11.918;2023-07-29T13:08:23;95520.78;;;22.30
13219;BMP180;6674;49.152;11.918;2023-07-29T13:10:50;95518.19;;;22.52
13219;BMP180;6674;49.152;11.918;2023-07-29T13:13:16;95511.41;;;22.81
13219;BMP180;6674;49.152;11.918;2023-07-29T13:15:43;95495.47;;;22.78
13219;BMP180;6674;49.152;11.918;2023-07-29T13:18:10;95495.25;;;22.96
13219;BMP180;6674;49.152;11.918;2023-07-29T13:20:38;95504.88;;;23.00
13219;BMP180;6674;49.152;11.918;2023-07-29T13:23:05;95490.72;;;22.88
13219;BMP180;6674;49.152;11.918;2023-07-29T13:25:32;95493.91;;;22.77
13219;BMP180;6674;49.152;11.918;2023-07-29T13:27:59;95491.41;;;22.72
13219;BMP180;6674;49.152;11.918;2023-07-29T13:30:26;95489.41;;;22.77
13219;BMP180;6674;49.152;11.918;2023-07-29T13:32:55;95488.78;;;23.02
13219;BMP180;6674;49.152;11.918;2023-07-29T13:35:23;95494.69;;;23.07
13219;BMP180;6674;49.152;11.918;2023-07-29T13:37:51;95494.16;;;22.97
13219;BMP180;6674;49.152;11.918;2023-07-29T13:40:18;95489.44;;;23.07
13219;BMP180;6674;49.152;11.918;2023-07-29T13:42:44;95486.50;;;23.09
13219;BMP180;6674;49.152;11.918;2023-07-29T13:45:11;95479.44;;;23.26
13219;BMP180;6674;49.152;11.918;2023-07-29T13:47:38;95483.91;;;23.17
13219;BMP180;6674;49.152;11.918;2023-07-29T13:50:06;95477.44;;;23.23
13219;BMP180;6674;49.152;11.918;2023-07-29T13:52:34;95477.31;;;23.37
13219;BMP180;6674;49.152;11.918;2023-07-29T13:55:04;95484.91;;;23.38
13219;BMP180;6674;49.152;11.918;2023-07-29T13:57:31;95490.31;;;23.33
13219;BMP180;6674;49.152;11.918;2023-07-29T13:59:58;95498.28;;;23.20
13219;BMP180;6674;49.152;11.918;2023-07-29T14:02:25;95497.66;;;23.14
13219;BMP180;6674;49.152;11.918;2023-07-29T14:04:52;95502.94;;;23.23
13219;BMP180;6674;49.152;11.918;2023-07-29T14:07:19;95488.56;;;23.20
13219;BMP180;6674;49.152;11.918;2023-07-29T14:09:45;95502.81;;;23.28
13219;BMP180;6674;49.152;11.918;2023-07-29T14:12:13;95486.41;;;23.22